sensor_id;sensor_type;location;lat;lon;timestamp;pressure;altitude;pressure_sealevel;temperature;humidity
28588;BME280;15787;49.662;10.162;2022-08-25T00:01:57;99270.09;;;19.58;84.52
28588;BME280;15787;49.662;10.162;2022-08-25T00:04:28;99269.41;;;19.63;84.26
28588;BME280;15787;49.662;10.162;2022-08-25T00:07:00;99268.81;;;19.74;84.02
28588;BME280;15787;49.662;10.162;2022-08-25T00:09:30;99264.34;;;19.52;84.19
28588;BME280;15787;49.662;10.162;2022-08-25T00:11:59;99263.56;;;19.52;84.32
28588;BME280;15787;49.662;10.162;2022-08-25T00:14:29;99260.63;;;19.76;83.65
28588;BME280;15787;49.662;10.162;2022-08-25T00:17:05;99258.06;;;19.63;84.29
28588;BME280;15787;49.662;10.162;2022-08-25T00:19:35;99261.69;;;19.64;83.85
28588;BME280;15787;49.662;10.162;2022-08-25T00:22:07;99259.25;;;19.42;84.93
28588;BME280;15787;49.662;10.162;2022-08-25T00:24:35;99264.91;;;19.71;83.63
28588;BME280;15787;49.662;10.162;2022-08-25T00:27:03;99270.09;;;19.58;84.05
28588;BME280;15787;49.662;10.162;2022-08-25T00:29:32;99271.34;;;19.42;84.49
28588;BME280;15787;49.662;10.162;2022-08-25T00:32:00;99275.75;;;19.58;83.53
28588;BME280;15787;49.662;10.162;2022-08-25T00:34:30;99275.00;;;19.58;82.99
28588;BME280;15787;49.662;10.162;2022-08-25T00:37:00;99282.69;;;19.19;84.40
28588;BME280;15787;49.662;10.162;2022-08-25T00:39:30;99282.66;;;19.04;85.77
28588;BME280;15787;49.662;10.162;2022-08-25T00:41:58;99278.66;;;19.11;85.58
28588;BME280;15787;49.662;10.162;2022-08-25T00:44:28;99285.72;;;19.30;84.93
28588;BME280;15787;49.662;10.162;2022-08-25T00:46:58;99287.66;;;18.85;86.08
28588;BME280;15787;49.662;10.162;2022-08-25T00:49:29;99280.38;;;18.93;86.75
28588;BME280;15787;49.662;10.162;2022-08-25T00:52:00;99279.16;;;19.09;85.17
28588;BME280;15787;49.662;10.162;2022-08-25T00:54:34;99274.88;;;19.14;84.22
28588;BME280;15787;49.662;10.162;2022-08-25T00:57:06;99273.97;;;19.08;84.30
28588;BME280;15787;49.662;10.162;2022-08-25T00:59:35;99272.34;;;19.16;84.11
28588;BME280;15787;49.662;10.162;2022-08-25T01:02:05;99275.88;;;19.25;84.19
28588;BME280;15787;49.662;10.162;2022-08-25T01:04:39;99270.34;;;19.07;85.17
28588;BME280;15787;49.662;10.162;2022-08-25T01:07:16;99271.22;;;18.99;85.36
28588;BME280;15787;49.662;10.162;2022-08-25T01:09:47;99278.66;;;19.11;84.94
28588;BME280;15787;49.662;10.162;2022-08-25T01:12:16;99272.78;;;18.76;85.73
28588;BME280;15787;49.662;10.162;2022-08-25T01:14:44;99263.16;;;18.82;85.47
28588;BME280;15787;49.662;10.162;2022-08-25T01:17:13;99265.66;;;18.57;85.94
28588;BME280;15787;49.662;10.162;2022-08-25T01:19:41;99261.94;;;18.42;86.56
28588;BME280;15787;49.662;10.162;2022-08-25T01:22:11;99261.75;;;18.21;88.16
28588;BME280;15787;49.662;10.162;2022-08-25T01:24:41;99261.00;;;18.12;89.60
28588;BME280;15787;49.662;10.162;2022-08-25T01:27:12;99262.91;;;18.06;90.08
28588;BME280;15787;49.662;10.162;2022-08-25T01:29:40;99258.97;;;18.03;89.16
28588;BME280;15787;49.662;10.162;2022-08-25T01:32:10;99261.44;;;17.59;91.75
28588;BME280;15787;49.662;10.162;2022-08-25T01:34:39;99254.06;;;17.62;92.45
28588;BME280;15787;49.662;10.162;2022-08-25T01:37:08;99254.41;;;17.64;93.04
28588;BME280;15787;49.662;10.162;2022-08-25T01:39:41;99260.00;;;17.82;92.00
28588;BME280;15787;49.662;10.162;2022-08-25T01:42:17;99250.78;;;17.54;92.06
28588;BME280;15787;49.662;10.162;2022-08-25T01:44:47;99251.88;;;17.57;93.17
28588;BME280;15787;49.662;10.162;2022-08-25T01:47:15;99252.50;;;17.79;91.50
28588;BME280;15787;49.662;10.162;2022-08-25T01:49:43;99251.47;;;18.00;90.14
28588;BME280;15787;49.662;10.162;2022-08-25T01:52:18;99257.75;;;17.95;90.29
28588;BME280;15787;49.662;10.162;2022-08-25T01:54:48;99253.88;;;17.75;90.23
28588;BME280;15787;49.662;10.162;2022-08-25T01:57:16;99251.41;;;17.67;91.17
28588;BME280;15787;49.662;10.162;2022-08-25T01:59:44;99242.78;;;17.71;91.59
28588;BME280;15787;49.662;10.162;2022-08-25T02:02:13;99249.47;;;17.92;90.55
28588;BME280;15787;49.662;10.162;2022-08-25T02:04:44;99231.53;;;17.35;91.81
28588;BME280;15787;49.662;10.162;2022-08-25T02:07:14;99232.91;;;17.48;93.44
28588;BME280;15787;49.662;10.162;2022-08-25T02:09:42;99234.19;;;17.56;92.75
28588;BME280;15787;49.662;10.162;2022-08-25T02:12:12;99237.00;;;17.56;92.62
28588;BME280;15787;49.662;10.162;2022-08-25T02:14:41;99238.66;;;17.81;90.74
28588;BME280;15787;49.662;10.162;2022-08-25T02:17:09;99240.69;;;17.81;90.17
28588;BME280;15787;49.662;10.162;2022-08-25T02:19:37;99240.69;;;17.81;90.10
28588;BME280;15787;49.662;10.162;2022-08-25T02:22:05;99235.19;;;17.86;89.85
28588;BME280;15787;49.662;10.162;2022-08-25T02:24:33;99232.28;;;17.62;91.08
28588;BME280;15787;49.662;10.162;2022-08-25T02:27:01;99243.38;;;17.75;90.15
28588;BME280;15787;49.662;10.162;2022-08-25T02:29:31;99236.94;;;17.75;90.12
28588;BME280;15787;49.662;10.162;2022-08-25T02:31:59;99235.22;;;17.77;89.45
28588;BME280;15787;49.662;10.162;2022-08-25T02:34:28;99234.94;;;17.66;89.72
28588;BME280;15787;49.662;10.162;2022-08-25T02:36:56;99231.44;;;17.80;89.45
28588;BME280;15787;49.662;10.162;2022-08-25T02:39:24;99233.84;;;17.63;89.81
28588;BME280;15787;49.662;10.162;2022-08-25T02:41:52;99239.19;;;17.61;90.75
28588;BME280;15787;49.662;10.162;2022-08-25T02:44:20;99237.31;;;17.58;91.33
28588;BME280;15787;49.662;10.162;2022-08-25T02:46:49;99227.28;;;17.39;91.99
28588;BME280;15787;49.662;10.162;2022-08-25T02:49:17;99232.16;;;17.39;91.99
28588;BME280;15787;49.662;10.162;2022-08-25T02:51:45;99225.38;;;17.45;91.31
28588;BME280;15787;49.662;10.162;2022-08-25T02:54:14;99227.78;;;17.29;91.59
28588;BME280;15787;49.662;10.162;2022-08-25T02:56:41;99230.44;;;17.23;91.83
28588;BME280;15787;49.662;10.162;2022-08-25T02:59:10;99232.00;;;17.33;91.34
28588;BME280;15787;49.662;10.162;2022-08-25T03:01:38;99225.75;;;17.20;92.08
28588;BME280;15787;49.662;10.162;2022-08-25T03:04:07;99225.75;;;17.20;92.32
28588;BME280;15787;49.662;10.162;2022-08-25T03:06:35;99226.81;;;17.14;92.05
28588;BME280;15787;49.662;10.162;2022-08-25T03:09:04;99225.59;;;17.05;92.55
28588;BME280;15787;49.662;10.162;2022-08-25T03:11:31;99225.56;;;16.60;94.86
28588;BME280;15787;49.662;10.162;2022-08-25T03:14:00;99227.31;;;16.85;94.93
28588;BME280;15787;49.662;10.162;2022-08-25T03:16:28;99230.28;;;17.18;92.39
28588;BME280;15787;49.662;10.162;2022-08-25T03:18:56;99231.41;;;16.93;92.92
28588;BME280;15787;49.662;10.162;2022-08-25T03:21:28;99226.66;;;16.81;93.86
28588;BME280;15787;49.662;10.162;2022-08-25T03:23:57;99230.59;;;16.65;94.39
28588;BME280;15787;49.662;10.162;2022-08-25T03:26:25;99232.50;;;16.77;94.14
28588;BME280;15787;49.662;10.162;2022-08-25T03:29:11;99227.91;;;17.16;91.97
28588;BME280;15787;49.662;10.162;2022-08-25T03:31:39;99219.16;;;16.87;93.10
28588;BME280;15787;49.662;10.162;2022-08-25T03:34:09;99217.91;;;16.97;92.76
28588;BME280;15787;49.662;10.162;2022-08-25T03:36:39;99215.72;;;16.65;94.34
28588;BME280;15787;49.662;10.162;2022-08-25T03:39:06;99207.03;;;16.41;95.63
28588;BME280;15787;49.662;10.162;2022-08-25T03:41:35;99206.88;;;16.44;95.74
28588;BME280;15787;49.662;10.162;2022-08-25T03:44:05;99206.28;;;16.59;95.26
28588;BME280;15787;49.662;10.162;2022-08-25T03:46:37;99210.69;;;16.69;94.68
28588;BME280;15787;49.662;10.162;2022-08-25T03:49:07;99198.56;;;16.50;94.67
28588;BME280;15787;49.662;10.162;2022-08-25T03:51:40;99194.72;;;16.75;93.59
28588;BME280;15787;49.662;10.162;2022-08-25T03:54:09;99197.38;;;16.78;92.34
28588;BME280;15787;49.662;10.162;2022-08-25T03:56:38;99198.16;;;16.79;92.29
28588;BME280;15787;49.662;10.162;2022-08-25T03:59:06;99196.63;;;16.78;92.12
28588;BME280;15787;49.662;10.162;2022-08-25T04:01:35;99199.56;;;16.83;92.05
28588;BME280;15787;49.662;10.162;2022-08-25T04:04:05;99199.88;;;16.76;92.71
28588;BME280;15787;49.662;10.162;2022-08-25T04:06:33;99205.84;;;16.78;93.27
28588;BME280;15787;49.662;10.162;2022-08-25T04:09:03;99211.03;;;16.80;93.37
28588;BME280;15787;49.662;10.162;2022-08-25T04:11:30;99213.81;;;16.62;93.75
28588;BME280;15787;49.662;10.162;2022-08-25T04:13:59;99215.03;;;16.52;94.10
28588;BME280;15787;49.662;10.162;2022-08-25T04:16:30;99209.19;;;16.28;95.87
28588;BME280;15787;49.662;10.162;2022-08-25T04:19:00;99205.22;;;16.07;96.88
28588;BME280;15787;49.662;10.162;2022-08-25T04:21:29;99210.72;;;16.20;96.78
28588;BME280;15787;49.662;10.162;2022-08-25T04:23:57;99203.03;;;16.11;97.62
28588;BME280;15787;49.662;10.162;2022-08-25T04:26:28;99214.50;;;16.17;98.07
28588;BME280;15787;49.662;10.162;2022-08-25T04:28:58;99218.22;;;16.14;98.63
28588;BME280;15787;49.662;10.162;2022-08-25T04:31:27;99214.63;;;16.22;98.01
28588;BME280;15787;49.662;10.162;2022-08-25T04:33:56;99225.66;;;16.38;97.71
28588;BME280;15787;49.662;10.162;2022-08-25T04:36:24;99218.91;;;16.36;96.89
28588;BME280;15787;49.662;10.162;2022-08-25T04:38:52;99224.06;;;16.19;97.62
28588;BME280;15787;49.662;10.162;2022-08-25T04:41:22;99219.78;;;16.15;98.19
28588;BME280;15787;49.662;10.162;2022-08-25T04:43:55;99214.38;;;16.29;97.93
28588;BME280;15787;49.662;10.162;2022-08-25T04:46:25;99210.63;;;16.41;97.21
28588;BME280;15787;49.662;10.162;2022-08-25T04:48:55;99215.91;;;16.30;97.31
28588;BME280;15787;49.662;10.162;2022-08-25T04:51:25;99209.78;;;16.23;97.56
28588;BME280;15787;49.662;10.162;2022-08-25T04:53:53;99207.63;;;16.27;97.48
28588;BME280;15787;49.662;10.162;2022-08-25T04:56:22;99210.22;;;16.03;98.05
28588;BME280;15787;49.662;10.162;2022-08-25T04:58:53;99207.69;;;15.96;98.27
28588;BME280;15787;49.662;10.162;2022-08-25T05:01:23;99202.59;;;15.73;99.01
28588;BME280;15787;49.662;10.162;2022-08-25T05:03:54;99211.22;;;15.48;100.00
28588;BME280;15787;49.662;10.162;2022-08-25T05:06:22;99207.34;;;15.33;100.00
28588;BME280;15787;49.662;10.162;2022-08-25T05:08:51;99206.41;;;15.97;100.00
28588;BME280;15787;49.662;10.162;2022-08-25T05:11:19;99203.41;;;15.52;100.00
28588;BME280;15787;49.662;10.162;2022-08-25T05:13:52;99197.59;;;15.46;100.00
28588;BME280;15787;49.662;10.162;2022-08-25T05:16:22;99197.22;;;16.06;99.79
28588;BME280;15787;49.662;10.162;2022-08-25T05:18:51;99200.91;;;16.24;97.56
28588;BME280;15787;49.662;10.162;2022-08-25T05:21:21;99195.66;;;16.05;97.55
28588;BME280;15787;49.662;10.162;2022-08-25T05:23:53;99209.16;;;16.19;97.76
28588;BME280;15787;49.662;10.162;2022-08-25T05:26:23;99204.63;;;16.21;98.42
28588;BME280;15787;49.662;10.162;2022-08-25T05:28:53;99214.38;;;16.29;97.75
28588;BME280;15787;49.662;10.162;2022-08-25T05:31:23;99213.22;;;16.09;98.01
28588;BME280;15787;49.662;10.162;2022-08-25T05:33:53;99213.94;;;16.49;96.85
28588;BME280;15787;49.662;10.162;2022-08-25T05:36:23;99210.63;;;16.41;95.84
28588;BME280;15787;49.662;10.162;2022-08-25T05:38:52;99219.34;;;16.16;96.94
28588;BME280;15787;49.662;10.162;2022-08-25T05:41:25;99212.66;;;16.41;96.82
28588;BME280;15787;49.662;10.162;2022-08-25T05:43:55;99210.97;;;16.53;96.43
28588;BME280;15787;49.662;10.162;2022-08-25T05:46:23;99209.59;;;16.57;96.83
28588;BME280;15787;49.662;10.162;2022-08-25T05:48:52;99222.91;;;16.66;97.44
28588;BME280;15787;49.662;10.162;2022-08-25T05:51:20;99217.25;;;16.66;97.80
28588;BME280;15787;49.662;10.162;2022-08-25T05:53:49;99223.25;;;16.95;96.05
28588;BME280;15787;49.662;10.162;2022-08-25T05:56:18;99222.47;;;16.94;96.14
28588;BME280;15787;49.662;10.162;2022-08-25T05:58:46;99218.41;;;16.95;97.29
28588;BME280;15787;49.662;10.162;2022-08-25T06:01:21;99216.97;;;16.91;98.49
28588;BME280;15787;49.662;10.162;2022-08-25T06:04:11;99221.06;;;17.08;98.53
28588;BME280;15787;49.662;10.162;2022-08-25T06:06:40;99219.47;;;17.16;97.56
28588;BME280;15787;49.662;10.162;2022-08-25T06:09:09;99217.06;;;17.51;96.22
28588;BME280;15787;49.662;10.162;2022-08-25T06:11:38;99219.91;;;17.42;95.01
28588;BME280;15787;49.662;10.162;2022-08-25T06:14:07;99217.00;;;17.87;93.34
28588;BME280;15787;49.662;10.162;2022-08-25T06:16:37;99211.50;;;17.84;93.21
28588;BME280;15787;49.662;10.162;2022-08-25T06:19:07;99211.59;;;17.98;93.32
28588;BME280;15787;49.662;10.162;2022-08-25T06:21:36;99210.50;;;18.28;92.87
28588;BME280;15787;49.662;10.162;2022-08-25T06:24:05;99208.41;;;18.14;93.27
28588;BME280;15787;49.662;10.162;2022-08-25T06:26:39;99204.94;;;18.43;92.47
28588;BME280;15787;49.662;10.162;2022-08-25T06:29:06;99201.63;;;18.45;92.47
28588;BME280;15787;49.662;10.162;2022-08-25T06:31:34;99201.56;;;18.77;92.19
28588;BME280;15787;49.662;10.162;2022-08-25T06:34:04;99191.22;;;18.74;91.55
28588;BME280;15787;49.662;10.162;2022-08-25T06:36:33;99183.00;;;19.00;91.31
28588;BME280;15787;49.662;10.162;2022-08-25T06:39:01;99193.34;;;19.03;91.40
28588;BME280;15787;49.662;10.162;2022-08-25T06:41:29;99190.38;;;19.36;90.92
28588;BME280;15787;49.662;10.162;2022-08-25T06:44:02;99196.41;;;19.29;91.12
28588;BME280;15787;49.662;10.162;2022-08-25T06:46:31;99192.53;;;19.55;91.95
28588;BME280;15787;49.662;10.162;2022-08-25T06:49:04;99193.97;;;19.95;90.90
28588;BME280;15787;49.662;10.162;2022-08-25T06:51:33;99199.84;;;20.41;90.21
28588;BME280;15787;49.662;10.162;2022-08-25T06:54:03;99192.97;;;20.67;89.42
28588;BME280;15787;49.662;10.162;2022-08-25T06:56:31;99190.19;;;20.93;89.22
28588;BME280;15787;49.662;10.162;2022-08-25T06:58:59;99187.16;;;21.17;89.57
28588;BME280;15787;49.662;10.162;2022-08-25T07:01:28;99189.22;;;21.42;88.91
28588;BME280;15787;49.662;10.162;2022-08-25T07:03:59;99187.34;;;21.65;89.01
28588;BME280;15787;49.662;10.162;2022-08-25T07:06:30;99192.34;;;21.75;87.44
28588;BME280;15787;49.662;10.162;2022-08-25T07:09:03;99202.72;;;22.10;87.31
28588;BME280;15787;49.662;10.162;2022-08-25T07:11:31;99204.50;;;22.44;86.31
28588;BME280;15787;49.662;10.162;2022-08-25T07:14:00;99192.22;;;22.63;85.56
28588;BME280;15787;49.662;10.162;2022-08-25T07:16:29;99195.41;;;22.77;84.70
28588;BME280;15787;49.662;10.162;2022-08-25T07:18:59;99182.53;;;22.98;83.64
28588;BME280;15787;49.662;10.162;2022-08-25T07:21:30;99185.94;;;23.07;83.31
28588;BME280;15787;49.662;10.162;2022-08-25T07:24:03;99191.41;;;23.27;82.67
28588;BME280;15787;49.662;10.162;2022-08-25T07:26:32;99196.16;;;23.47;81.53
28588;BME280;15787;49.662;10.162;2022-08-25T07:29:11;99195.84;;;23.28;81.94
28588;BME280;15787;49.662;10.162;2022-08-25T07:31:39;99189.19;;;23.76;80.77
28588;BME280;15787;49.662;10.162;2022-08-25T07:34:08;99194.38;;;23.72;80.46
28588;BME280;15787;49.662;10.162;2022-08-25T07:36:56;99193.34;;;24.08;79.77
28588;BME280;15787;49.662;10.162;2022-08-25T07:39:25;99190.50;;;24.19;79.05
28588;BME280;15787;49.662;10.162;2022-08-25T07:41:54;99186.31;;;24.37;78.26
28588;BME280;15787;49.662;10.162;2022-08-25T07:44:23;99184.13;;;24.71;77.33
28588;BME280;15787;49.662;10.162;2022-08-25T07:46:53;99184.31;;;24.95;75.87
28588;BME280;15787;49.662;10.162;2022-08-25T07:49:23;99185.41;;;24.86;75.46
28588;BME280;15787;49.662;10.162;2022-08-25T07:52:30;99194.34;;;25.12;75.26
28588;BME280;15787;49.662;10.162;2022-08-25T07:54:59;99193.91;;;24.92;74.99
28588;BME280;15787;49.662;10.162;2022-08-25T07:57:27;99182.34;;;25.20;74.65
28588;BME280;15787;49.662;10.162;2022-08-25T07:59:55;99188.44;;;25.51;74.08
28588;BME280;15787;49.662;10.162;2022-08-25T08:02:24;99187.63;;;25.56;73.73
28588;BME280;15787;49.662;10.162;2022-08-25T08:04:53;99192.88;;;25.82;72.54
28588;BME280;15787;49.662;10.162;2022-08-25T08:07:24;99194.84;;;25.63;72.67
28588;BME280;15787;49.662;10.162;2022-08-25T08:10:13;99197.81;;;25.82;72.35
28588;BME280;15787;49.662;10.162;2022-08-25T08:13:01;99202.34;;;26.01;71.95
28588;BME280;15787;49.662;10.162;2022-08-25T08:15:33;99194.16;;;26.16;71.08
28588;BME280;15787;49.662;10.162;2022-08-25T08:18:03;99197.41;;;26.31;70.54
28588;BME280;15787;49.662;10.162;2022-08-25T08:20:33;99200.56;;;25.98;71.78
28588;BME280;15787;49.662;10.162;2022-08-25T08:23:09;99193.97;;;26.39;70.39
28588;BME280;15787;49.662;10.162;2022-08-25T08:25:38;99197.19;;;26.54;69.84
28588;BME280;15787;49.662;10.162;2022-08-25T08:28:06;99193.47;;;26.83;68.30
28588;BME280;15787;49.662;10.162;2022-08-25T08:30:36;99195.66;;;26.95;67.71
28588;BME280;15787;49.662;10.162;2022-08-25T08:33:04;99193.81;;;26.74;68.62
28588;BME280;15787;49.662;10.162;2022-08-25T08:35:38;99200.16;;;26.67;68.49
28588;BME280;15787;49.662;10.162;2022-08-25T08:38:06;99192.28;;;26.97;67.72
28588;BME280;15787;49.662;10.162;2022-08-25T08:40:47;99202.69;;;26.52;68.62
28588;BME280;15787;49.662;10.162;2022-08-25T08:43:42;99194.22;;;27.26;67.58
28588;BME280;15787;49.662;10.162;2022-08-25T08:46:11;99189.94;;;27.14;67.75
28588;BME280;15787;49.662;10.162;2022-08-25T08:48:49;99192.28;;;27.34;67.42
28588;BME280;15787;49.662;10.162;2022-08-25T08:51:25;99183.63;;;27.40;66.47
28588;BME280;15787;49.662;10.162;2022-08-25T08:54:03;99176.81;;;27.43;66.09
28588;BME280;15787;49.662;10.162;2022-08-25T08:56:44;99180.03;;;27.71;65.28
28588;BME280;15787;49.662;10.162;2022-08-25T08:59:17;99169.66;;;28.13;63.76
28588;BME280;15787;49.662;10.162;2022-08-25T09:01:49;99173.00;;;27.85;65.30
28588;BME280;15787;49.662;10.162;2022-08-25T09:04:28;99171.25;;;28.40;63.77
28588;BME280;15787;49.662;10.162;2022-08-25T09:06:57;99168.75;;;28.05;63.93
28588;BME280;15787;49.662;10.162;2022-08-25T09:09:29;99171.81;;;28.52;62.79
28588;BME280;15787;49.662;10.162;2022-08-25T09:12:11;99171.91;;;29.12;61.49
28588;BME280;15787;49.662;10.162;2022-08-25T09:14:53;99167.72;;;29.13;59.99
28588;BME280;15787;49.662;10.162;2022-08-25T09:17:36;99164.84;;;29.26;60.25
28588;BME280;15787;49.662;10.162;2022-08-25T09:20:14;99163.63;;;29.55;58.64
28588;BME280;15787;49.662;10.162;2022-08-25T09:22:51;99159.28;;;29.28;59.96
28588;BME280;15787;49.662;10.162;2022-08-25T09:25:25;99157.38;;;28.70;60.61
28588;BME280;15787;49.662;10.162;2022-08-25T09:28:27;99150.75;;;28.75;60.35
28588;BME280;15787;49.662;10.162;2022-08-25T09:30:58;99146.81;;;29.12;59.71
28588;BME280;15787;49.662;10.162;2022-08-25T09:33:27;99140.06;;;29.10;58.63
28588;BME280;15787;49.662;10.162;2022-08-25T09:35:59;99143.34;;;29.27;59.39
28588;BME280;15787;49.662;10.162;2022-08-25T09:38:32;99143.94;;;29.12;58.90
28588;BME280;15787;49.662;10.162;2022-08-25T09:41:00;99131.66;;;28.99;59.57
28588;BME280;15787;49.662;10.162;2022-08-25T09:43:32;99137.75;;;29.08;59.87
28588;BME280;15787;49.662;10.162;2022-08-25T09:46:07;99134.78;;;29.01;60.21
28588;BME280;15787;49.662;10.162;2022-08-25T09:48:42;99136.25;;;28.81;59.64
28588;BME280;15787;49.662;10.162;2022-08-25T09:51:19;99112.81;;;28.90;59.36
28588;BME280;15787;49.662;10.162;2022-08-25T09:53:53;99114.47;;;29.19;59.09
28588;BME280;15787;49.662;10.162;2022-08-25T09:56:23;99106.66;;;28.73;58.82
28588;BME280;15787;49.662;10.162;2022-08-25T09:58:54;99094.44;;;29.81;57.75
28588;BME280;15787;49.662;10.162;2022-08-25T10:01:28;99092.31;;;30.02;55.77
28588;BME280;15787;49.662;10.162;2022-08-25T10:04:03;99085.38;;;30.54;54.51
28588;BME280;15787;49.662;10.162;2022-08-25T10:06:41;99084.94;;;31.30;53.46
28588;BME280;15787;49.662;10.162;2022-08-25T10:09:22;99078.66;;;31.54;51.14
28588;BME280;15787;49.662;10.162;2022-08-25T10:11:53;99083.75;;;31.33;52.50
28588;BME280;15787;49.662;10.162;2022-08-25T10:14:31;99082.66;;;32.49;50.20
28588;BME280;15787;49.662;10.162;2022-08-25T10:17:15;99076.66;;;32.70;49.44
28588;BME280;15787;49.662;10.162;2022-08-25T10:22:40;99061.25;;;31.23;51.18
28588;BME280;15787;49.662;10.162;2022-08-25T10:25:10;99046.84;;;32.29;50.41
28588;BME280;15787;49.662;10.162;2022-08-25T10:27:44;99055.84;;;32.64;49.52
28588;BME280;15787;49.662;10.162;2022-08-25T10:30:22;99050.56;;;32.85;48.28
28588;BME280;15787;49.662;10.162;2022-08-25T10:33:08;99055.00;;;31.85;50.70
28588;BME280;15787;49.662;10.162;2022-08-25T10:35:57;99045.69;;;32.32;49.10
28588;BME280;15787;49.662;10.162;2022-08-25T10:38:36;99032.56;;;32.54;48.69
28588;BME280;15787;49.662;10.162;2022-08-25T10:41:30;99027.22;;;32.83;48.51
28588;BME280;15787;49.662;10.162;2022-08-25T10:44:09;99017.66;;;33.37;47.48
28588;BME280;15787;49.662;10.162;2022-08-25T10:47:08;99014.59;;;31.55;50.23
28588;BME280;15787;49.662;10.162;2022-08-25T10:49:44;99017.25;;;31.99;48.30
28588;BME280;15787;49.662;10.162;2022-08-25T10:52:22;99004.66;;;33.21;47.18
28588;BME280;15787;49.662;10.162;2022-08-25T10:54:57;98999.34;;;33.10;47.12
28588;BME280;15787;49.662;10.162;2022-08-25T10:57:31;99004.69;;;32.26;46.74
28588;BME280;15787;49.662;10.162;2022-08-25T11:00:06;99003.78;;;31.71;48.37
28588;BME280;15787;49.662;10.162;2022-08-25T11:03:03;99000.47;;;31.06;49.13
28588;BME280;15787;49.662;10.162;2022-08-25T11:05:40;99007.41;;;30.60;50.22
28588;BME280;15787;49.662;10.162;2022-08-25T11:08:14;98996.91;;;30.85;50.04
28588;BME280;15787;49.662;10.162;2022-08-25T11:10:46;98991.41;;;31.10;49.34
28588;BME280;15787;49.662;10.162;2022-08-25T11:13:23;98985.19;;;30.83;49.68
28588;BME280;15787;49.662;10.162;2022-08-25T11:15:55;98986.25;;;31.31;48.70
28588;BME280;15787;49.662;10.162;2022-08-25T11:18:50;98982.41;;;31.28;49.26
28588;BME280;15787;49.662;10.162;2022-08-25T11:21:25;98985.72;;;31.78;49.21
28588;BME280;15787;49.662;10.162;2022-08-25T11:24:00;98977.31;;;32.27;47.64
28588;BME280;15787;49.662;10.162;2022-08-25T11:26:34;98974.34;;;32.58;47.76
28588;BME280;15787;49.662;10.162;2022-08-25T11:29:12;98969.47;;;32.68;47.40
28588;BME280;15787;49.662;10.162;2022-08-25T11:31:44;98975.88;;;32.59;47.71
28588;BME280;15787;49.662;10.162;2022-08-25T11:34:20;98975.13;;;33.23;46.74
28588;BME280;15787;49.662;10.162;2022-08-25T11:36:51;98966.09;;;33.43;46.34
28588;BME280;15787;49.662;10.162;2022-08-25T11:39:34;98977.78;;;33.78;45.22
28588;BME280;15787;49.662;10.162;2022-08-25T11:42:14;98971.06;;;32.93;46.50
28588;BME280;15787;49.662;10.162;2022-08-25T11:44:51;98967.94;;;31.97;48.50
28588;BME280;15787;49.662;10.162;2022-08-25T11:47:35;98965.78;;;32.27;47.17
28588;BME280;15787;49.662;10.162;2022-08-25T11:50:23;98964.38;;;32.83;47.36
28588;BME280;15787;49.662;10.162;2022-08-25T11:52:56;98959.72;;;33.20;46.58
28588;BME280;15787;49.662;10.162;2022-08-25T11:55:44;98964.38;;;33.16;47.08
28588;BME280;15787;49.662;10.162;2022-08-25T11:58:21;98953.88;;;33.28;46.38
28588;BME280;15787;49.662;10.162;2022-08-25T12:00:51;98966.75;;;33.34;46.33
28588;BME280;15787;49.662;10.162;2022-08-25T12:03:46;98966.56;;;33.99;45.76
28588;BME280;15787;49.662;10.162;2022-08-25T12:06:25;98959.69;;;33.69;46.35
28588;BME280;15787;49.662;10.162;2022-08-25T12:09:19;98955.25;;;34.10;46.15
28588;BME280;15787;49.662;10.162;2022-08-25T12:11:50;98950.38;;;35.18;45.56
28588;BME280;15787;49.662;10.162;2022-08-25T12:14:45;98948.38;;;34.67;45.02
28588;BME280;15787;49.662;10.162;2022-08-25T12:17:23;98954.31;;;34.08;45.59
28588;BME280;15787;49.662;10.162;2022-08-25T12:19:58;98939.56;;;34.13;45.70
28588;BME280;15787;49.662;10.162;2022-08-25T12:22:56;98941.13;;;34.14;46.42
28588;BME280;15787;49.662;10.162;2022-08-25T12:25:31;98937.50;;;34.41;45.60
28588;BME280;15787;49.662;10.162;2022-08-25T12:28:07;98935.81;;;34.55;45.71
28588;BME280;15787;49.662;10.162;2022-08-25T12:30:45;98935.97;;;34.57;45.53
28588;BME280;15787;49.662;10.162;2022-08-25T12:33:27;98938.78;;;33.96;46.25
28588;BME280;15787;49.662;10.162;2022-08-25T12:36:04;98931.59;;;32.48;47.95
28588;BME280;15787;49.662;10.162;2022-08-25T12:38:42;98933.25;;;34.07;46.90
28588;BME280;15787;49.662;10.162;2022-08-25T12:41:19;98934.53;;;34.14;45.33
28588;BME280;15787;49.662;10.162;2022-08-25T12:43:51;98923.88;;;33.99;45.89
28588;BME280;15787;49.662;10.162;2022-08-25T12:46:35;98934.00;;;33.49;47.17
28588;BME280;15787;49.662;10.162;2022-08-25T12:49:11;98922.94;;;32.81;48.15
28588;BME280;15787;49.662;10.162;2022-08-25T12:51:49;98932.66;;;32.68;47.93
28588;BME280;15787;49.662;10.162;2022-08-25T12:54:37;98929.16;;;33.02;48.02
28588;BME280;15787;49.662;10.162;2022-08-25T12:57:23;98923.38;;;34.10;46.97
28588;BME280;15787;49.662;10.162;2022-08-25T12:59:58;98926.56;;;34.92;45.70
28588;BME280;15787;49.662;10.162;2022-08-25T13:02:50;98926.81;;;34.43;45.75
28588;BME280;15787;49.662;10.162;2022-08-25T13:05:41;98918.97;;;34.09;45.71
28588;BME280;15787;49.662;10.162;2022-08-25T13:08:39;98917.66;;;33.19;46.34
28588;BME280;15787;49.662;10.162;2022-08-25T13:11:18;98914.16;;;32.31;48.61
28588;BME280;15787;49.662;10.162;2022-08-25T13:13:51;98916.25;;;31.53;50.12
28588;BME280;15787;49.662;10.162;2022-08-25T13:16:23;98919.59;;;30.53;51.31
28588;BME280;15787;49.662;10.162;2022-08-25T13:18:56;98910.13;;;31.49;50.00
28588;BME280;15787;49.662;10.162;2022-08-25T13:21:29;98911.06;;;31.14;50.33
28588;BME280;15787;49.662;10.162;2022-08-25T13:23:58;98904.91;;;31.48;50.09